sensor_id;sensor_type;location;lat;lon;timestamp;pressure;altitude;pressure_sealevel;temperature;humidity
55990;BME280;41875;55.806;38.082;2023-01-26T00:01:27;99985.47;;;-0.86;61.58
55990;BME280;41875;55.806;38.082;2023-01-26T00:03:56;99978.06;;;-0.76;61.88
55990;BME280;41875;55.806;38.082;2023-01-26T00:06:24;99981.13;;;-0.68;61.18
55990;BME280;41875;55.806;38.082;2023-01-26T00:08:53;99978.50;;;-0.15;60.12
55990;BME280;41875;55.806;38.082;2023-01-26T00:11:24;99982.72;;;-0.30;59.55
55990;BME280;41875;55.806;38.082;2023-01-26T00:13:55;99974.63;;;-0.59;60.17
55990;BME280;41875;55.806;38.082;2023-01-26T00:16:26;99967.34;;;-0.52;61.08
55990;BME280;41875;55.806;38.082;2023-01-26T00:18:56;99962.56;;;-0.97;61.79
55990;BME280;41875;55.806;38.082;2023-01-26T00:21:25;99960.06;;;-0.98;62.15
55990;BME280;41875;55.806;38.082;2023-01-26T00:23:53;99980.72;;;-0.60;61.29
55990;BME280;41875;55.806;38.082;2023-01-26T00:26:23;99975.78;;;-0.47;60.55
55990;BME280;41875;55.806;38.082;2023-01-26T00:28:52;99982.28;;;-0.38;60.23
55990;BME280;41875;55.806;38.082;2023-01-26T00:31:22;99973.94;;;-0.45;60.25
55990;BME280;41875;55.806;38.082;2023-01-26T00:33:54;99974.41;;;-0.72;61.18
55990;BME280;41875;55.806;38.082;2023-01-26T00:36:23;99956.63;;;-0.46;60.10
55990;BME280;41875;55.806;38.082;2023-01-26T00:38:51;99964.44;;;-0.64;60.98
55990;BME280;41875;55.806;38.082;2023-01-26T00:41:20;99972.78;;;-0.57;61.01
55990;BME280;41875;55.806;38.082;2023-01-26T00:44:08;99959.63;;;-0.54;60.70
55990;BME280;41875;55.806;38.082;2023-01-26T00:46:36;99954.22;;;0.18;58.86
55990;BME280;41875;55.806;38.082;2023-01-26T00:49:07;99973.69;;;-0.40;60.64
55990;BME280;41875;55.806;38.082;2023-01-26T00:51:35;99962.59;;;-0.62;61.21
55990;BME280;41875;55.806;38.082;2023-01-26T00:54:04;99954.66;;;-0.58;60.68
55990;BME280;41875;55.806;38.082;2023-01-26T00:56:32;99948.38;;;-0.72;61.88
55990;BME280;41875;55.806;38.082;2023-01-26T00:59:01;99954.25;;;-0.33;60.60
55990;BME280;41875;55.806;38.082;2023-01-26T01:01:30;99952.59;;;-0.52;61.01
55990;BME280;41875;55.806;38.082;2023-01-26T01:03:59;99944.25;;;-0.58;60.99
55990;BME280;41875;55.806;38.082;2023-01-26T01:06:28;99940.34;;;-0.67;61.62
55990;BME280;41875;55.806;38.082;2023-01-26T01:08:57;99943.03;;;-0.69;61.29
55990;BME280;41875;55.806;38.082;2023-01-26T01:11:26;99946.75;;;-0.74;61.93
55990;BME280;41875;55.806;38.082;2023-01-26T01:13:56;99945.53;;;-0.67;61.22
55990;BME280;41875;55.806;38.082;2023-01-26T01:16:24;99943.31;;;-0.75;62.20
55990;BME280;41875;55.806;38.082;2023-01-26T01:18:56;99951.66;;;-0.51;61.79
55990;BME280;41875;55.806;38.082;2023-01-26T01:21:24;99947.63;;;-0.39;61.77
55990;BME280;41875;55.806;38.082;2023-01-26T01:23:54;99938.94;;;-0.57;61.44
55990;BME280;41875;55.806;38.082;2023-01-26T01:26:22;99937.50;;;-0.63;61.95
55990;BME280;41875;55.806;38.082;2023-01-26T01:28:52;99930.75;;;-0.49;61.73
55990;BME280;41875;55.806;38.082;2023-01-26T01:31:21;99931.13;;;-0.39;61.96
55990;BME280;41875;55.806;38.082;2023-01-26T01:33:51;99933.75;;;-0.74;62.61
55990;BME280;41875;55.806;38.082;2023-01-26T01:36:20;99936.88;;;-0.68;62.26
55990;BME280;41875;55.806;38.082;2023-01-26T01:38:51;99936.50;;;-0.60;61.85
55990;BME280;41875;55.806;38.082;2023-01-26T01:41:21;99938.38;;;-0.62;61.79
55990;BME280;41875;55.806;38.082;2023-01-26T01:43:51;99950.22;;;-0.39;61.23
55990;BME280;41875;55.806;38.082;2023-01-26T01:46:39;99939.84;;;-0.23;60.81
55990;BME280;41875;55.806;38.082;2023-01-26T01:49:16;99938.66;;;-0.33;61.08
55990;BME280;41875;55.806;38.082;2023-01-26T01:51:49;99932.25;;;-0.61;61.95
55990;BME280;41875;55.806;38.082;2023-01-26T01:54:24;99930.31;;;-0.75;62.32
55990;BME280;41875;55.806;38.082;2023-01-26T01:56:59;99941.03;;;-0.99;62.92
55990;BME280;41875;55.806;38.082;2023-01-26T01:59:29;99944.25;;;-0.58;61.87
55990;BME280;41875;55.806;38.082;2023-01-26T02:01:58;99943.38;;;-0.41;61.16
55990;BME280;41875;55.806;38.082;2023-01-26T02:04:27;99940.63;;;-0.38;61.13
55990;BME280;41875;55.806;38.082;2023-01-26T02:06:59;99935.56;;;-0.41;60.50
55990;BME280;41875;55.806;38.082;2023-01-26T02:09:31;99948.44;;;-0.38;60.84
55990;BME280;41875;55.806;38.082;2023-01-26T02:12:22;99930.63;;;-0.12;59.32
55990;BME280;41875;55.806;38.082;2023-01-26T02:14:52;99922.38;;;-0.21;59.43
55990;BME280;41875;55.806;38.082;2023-01-26T02:17:34;99920.81;;;-0.41;60.40
55990;BME280;41875;55.806;38.082;2023-01-26T02:20:03;99920.28;;;-0.48;60.26
55990;BME280;41875;55.806;38.082;2023-01-26T02:22:40;99918.06;;;-0.90;61.20
55990;BME280;41875;55.806;38.082;2023-01-26T02:25:20;99909.66;;;-0.78;61.14
55990;BME280;41875;55.806;38.082;2023-01-26T02:27:52;99913.56;;;-0.69;61.32
55990;BME280;41875;55.806;38.082;2023-01-26T02:30:23;99907.47;;;-0.35;60.47
55990;BME280;41875;55.806;38.082;2023-01-26T02:32:53;99897.03;;;-0.68;60.72
55990;BME280;41875;55.806;38.082;2023-01-26T02:35:22;99894.97;;;-0.62;60.83
55990;BME280;41875;55.806;38.082;2023-01-26T02:37:51;99898.94;;;-0.54;60.73
55990;BME280;41875;55.806;38.082;2023-01-26T02:40:25;99898.84;;;-0.88;61.75
55990;BME280;41875;55.806;38.082;2023-01-26T02:43:00;99893.56;;;-0.51;60.68
55990;BME280;41875;55.806;38.082;2023-01-26T02:45:29;99880.63;;;-0.53;60.65
55990;BME280;41875;55.806;38.082;2023-01-26T02:47:58;99895.97;;;-0.31;59.92
55990;BME280;41875;55.806;38.082;2023-01-26T02:50:31;99888.66;;;-0.40;60.05
55990;BME280;41875;55.806;38.082;2023-01-26T02:52:59;99898.81;;;-0.69;61.39
55990;BME280;41875;55.806;38.082;2023-01-26T02:55:29;99885.06;;;-0.55;60.81
55990;BME280;41875;55.806;38.082;2023-01-26T02:57:58;99892.00;;;-0.38;60.02
55990;BME280;41875;55.806;38.082;2023-01-26T03:00:31;99881.72;;;-0.57;61.04
55990;BME280;41875;55.806;38.082;2023-01-26T03:03:08;99886.19;;;-0.77;61.94
55990;BME280;41875;55.806;38.082;2023-01-26T03:05:39;99878.44;;;-0.60;61.22
55990;BME280;41875;55.806;38.082;2023-01-26T03:08:07;99873.09;;;-0.41;60.86
55990;BME280;41875;55.806;38.082;2023-01-26T03:10:37;99883.53;;;-0.59;60.73
55990;BME280;41875;55.806;38.082;2023-01-26T03:13:06;99876.34;;;-0.54;60.39
55990;BME280;41875;55.806;38.082;2023-01-26T03:15:36;99872.66;;;-0.16;60.11
55990;BME280;41875;55.806;38.082;2023-01-26T03:18:21;99875.38;;;-0.69;60.10
55990;BME280;41875;55.806;38.082;2023-01-26T03:21:12;99875.53;;;-0.72;61.42
55990;BME280;41875;55.806;38.082;2023-01-26T03:23:58;99874.22;;;-0.29;60.20
55990;BME280;41875;55.806;38.082;2023-01-26T03:26:44;99862.44;;;0.13;58.57
55990;BME280;41875;55.806;38.082;2023-01-26T03:29:32;99862.78;;;-0.77;61.14
55990;BME280;41875;55.806;38.082;2023-01-26T03:32:03;99853.19;;;-0.58;61.46
55990;BME280;41875;55.806;38.082;2023-01-26T03:34:32;99856.69;;;-0.59;61.11
55990;BME280;41875;55.806;38.082;2023-01-26T03:37:03;99862.38;;;-0.69;60.83
55990;BME280;41875;55.806;38.082;2023-01-26T03:39:40;99861.16;;;-0.79;61.40
55990;BME280;41875;55.806;38.082;2023-01-26T03:42:27;99856.16;;;-0.66;61.87
55990;BME280;41875;55.806;38.082;2023-01-26T03:45:14;99862.00;;;-0.61;61.02
55990;BME280;41875;55.806;38.082;2023-01-26T03:48:06;99864.66;;;-0.63;60.91
55990;BME280;41875;55.806;38.082;2023-01-26T03:50:52;99864.28;;;-0.72;61.00
55990;BME280;41875;55.806;38.082;2023-01-26T03:53:39;99869.91;;;-0.47;60.85
55990;BME280;41875;55.806;38.082;2023-01-26T03:56:25;99876.69;;;-0.26;60.15
55990;BME280;41875;55.806;38.082;2023-01-26T03:59:06;99869.81;;;-0.45;60.62
55990;BME280;41875;55.806;38.082;2023-01-26T04:01:44;99880.22;;;-0.27;60.51
55990;BME280;41875;55.806;38.082;2023-01-26T04:04:33;99873.03;;;-0.40;60.32
55990;BME280;41875;55.806;38.082;2023-01-26T04:07:23;99875.91;;;-0.62;61.22
55990;BME280;41875;55.806;38.082;2023-01-26T04:10:10;99871.44;;;0.07;60.06
55990;BME280;41875;55.806;38.082;2023-01-26T04:12:41;99874.22;;;-0.29;59.94
55990;BME280;41875;55.806;38.082;2023-01-26T04:15:17;99865.81;;;-0.68;61.08
55990;BME280;41875;55.806;38.082;2023-01-26T04:18:05;99875.19;;;-0.48;61.15
55990;BME280;41875;55.806;38.082;2023-01-26T04:20:54;99892.84;;;-0.71;60.56
55990;BME280;41875;55.806;38.082;2023-01-26T04:23:42;99885.56;;;-0.64;61.51
55990;BME280;41875;55.806;38.082;2023-01-26T04:26:10;99882.72;;;-0.26;60.64
55990;BME280;41875;55.806;38.082;2023-01-26T04:28:39;99872.16;;;-0.56;61.16
55990;BME280;41875;55.806;38.082;2023-01-26T04:31:08;99874.28;;;-0.47;60.60
55990;BME280;41875;55.806;38.082;2023-01-26T04:33:37;99882.44;;;-0.88;62.20
55990;BME280;41875;55.806;38.082;2023-01-26T04:36:09;99874.50;;;-0.52;60.99
55990;BME280;41875;55.806;38.082;2023-01-26T04:38:42;99876.19;;;-0.17;60.15
55990;BME280;41875;55.806;38.082;2023-01-26T04:41:15;99872.75;;;-0.18;59.80
55990;BME280;41875;55.806;38.082;2023-01-26T04:43:48;99877.56;;;-0.10;59.83
55990;BME280;41875;55.806;38.082;2023-01-26T04:46:17;99865.94;;;-0.54;60.80
55990;BME280;41875;55.806;38.082;2023-01-26T04:48:45;99880.16;;;-0.43;60.62
55990;BME280;41875;55.806;38.082;2023-01-26T04:51:17;99874.41;;;-0.50;61.15
55990;BME280;41875;55.806;38.082;2023-01-26T04:53:47;99870.38;;;-0.56;61.54
55990;BME280;41875;55.806;38.082;2023-01-26T04:56:21;99866.78;;;-0.53;61.24
55990;BME280;41875;55.806;38.082;2023-01-26T04:58:52;99869.41;;;-0.71;61.28
55990;BME280;41875;55.806;38.082;2023-01-26T05:01:22;99865.56;;;-0.81;62.41
55990;BME280;41875;55.806;38.082;2023-01-26T05:03:51;99872.59;;;-0.48;61.09
55990;BME280;41875;55.806;38.082;2023-01-26T05:06:23;99874.63;;;-0.88;61.86
55990;BME280;41875;55.806;38.082;2023-01-26T05:08:51;99860.84;;;-0.73;61.97
55990;BME280;41875;55.806;38.082;2023-01-26T05:11:21;99871.94;;;-0.87;62.18
55990;BME280;41875;55.806;38.082;2023-01-26T05:14:03;99872.47;;;-0.63;61.44
55990;BME280;41875;55.806;38.082;2023-01-26T05:16:42;99863.03;;;-0.48;60.51
55990;BME280;41875;55.806;38.082;2023-01-26T05:19:40;99862.53;;;-0.72;61.60
55990;BME280;41875;55.806;38.082;2023-01-26T05:22:39;99868.81;;;-0.42;60.66
55990;BME280;41875;55.806;38.082;2023-01-26T05:25:31;99875.41;;;-0.35;59.97
55990;BME280;41875;55.806;38.082;2023-01-26T05:28:03;99861.28;;;-0.65;60.82
55990;BME280;41875;55.806;38.082;2023-01-26T05:30:32;99869.06;;;-0.47;60.22
55990;BME280;41875;55.806;38.082;2023-01-26T05:33:02;99866.56;;;-0.33;60.09
55990;BME280;41875;55.806;38.082;2023-01-26T05:35:32;99872.72;;;-0.34;60.30
55990;BME280;41875;55.806;38.082;2023-01-26T05:38:04;99867.09;;;-0.59;60.74
55990;BME280;41875;55.806;38.082;2023-01-26T05:40:33;99868.50;;;-0.36;60.08
55990;BME280;41875;55.806;38.082;2023-01-26T05:43:01;99873.13;;;-0.59;61.10
55990;BME280;41875;55.806;38.082;2023-01-26T05:45:48;99865.66;;;-0.65;61.38
55990;BME280;41875;55.806;38.082;2023-01-26T05:48:20;99867.25;;;-0.29;59.92
55990;BME280;41875;55.806;38.082;2023-01-26T05:50:51;99865.25;;;-0.57;60.68
55990;BME280;41875;55.806;38.082;2023-01-26T05:53:24;99875.91;;;-0.62;60.64
55990;BME280;41875;55.806;38.082;2023-01-26T05:55:53;99871.91;;;-0.52;60.44
55990;BME280;41875;55.806;38.082;2023-01-26T05:58:23;99880.06;;;-0.24;60.07
55990;BME280;41875;55.806;38.082;2023-01-26T06:00:52;99880.84;;;-0.06;59.60
55990;BME280;41875;55.806;38.082;2023-01-26T06:03:28;99876.31;;;-0.36;59.62
55990;BME280;41875;55.806;38.082;2023-01-26T06:05:56;99867.59;;;0.14;58.55
55990;BME280;41875;55.806;38.082;2023-01-26T06:08:34;99869.16;;;0.17;58.98
55990;BME280;41875;55.806;38.082;2023-01-26T06:11:35;99866.31;;;-0.44;59.36
55990;BME280;41875;55.806;38.082;2023-01-26T06:14:22;99870.72;;;-0.28;59.70
55990;BME280;41875;55.806;38.082;2023-01-26T06:16:51;99854.00;;;-0.58;60.19
55990;BME280;41875;55.806;38.082;2023-01-26T06:19:22;99862.38;;;-0.35;59.88
55990;BME280;41875;55.806;38.082;2023-01-26T06:21:56;99863.94;;;-0.15;59.21
55990;BME280;41875;55.806;38.082;2023-01-26T06:24:26;99857.50;;;-0.41;60.26
55990;BME280;41875;55.806;38.082;2023-01-26T06:26:54;99838.88;;;-0.34;60.16
55990;BME280;41875;55.806;38.082;2023-01-26T06:29:23;99845.25;;;-0.39;59.63
55990;BME280;41875;55.806;38.082;2023-01-26T06:31:51;99842.94;;;0.04;59.19
55990;BME280;41875;55.806;38.082;2023-01-26T06:34:20;99844.53;;;-0.25;59.40
55990;BME280;41875;55.806;38.082;2023-01-26T06:36:48;99847.34;;;-0.30;59.21
55990;BME280;41875;55.806;38.082;2023-01-26T06:39:25;99850.50;;;-0.23;59.82
55990;BME280;41875;55.806;38.082;2023-01-26T06:41:54;99848.00;;;-0.09;58.75
55990;BME280;41875;55.806;38.082;2023-01-26T06:44:22;99847.97;;;0.23;58.18
55990;BME280;41875;55.806;38.082;2023-01-26T06:46:51;99842.09;;;-0.12;58.96
55990;BME280;41875;55.806;38.082;2023-01-26T06:49:20;99839.72;;;-0.33;59.09
55990;BME280;41875;55.806;38.082;2023-01-26T06:51:54;99842.94;;;-0.12;58.93
55990;BME280;41875;55.806;38.082;2023-01-26T06:54:52;99852.78;;;0.15;58.27
55990;BME280;41875;55.806;38.082;2023-01-26T06:57:46;99854.13;;;0.22;57.81
55990;BME280;41875;55.806;38.082;2023-01-26T07:00:35;99859.22;;;0.08;58.34
55990;BME280;41875;55.806;38.082;2023-01-26T07:03:24;99853.28;;;0.22;58.15
55990;BME280;41875;55.806;38.082;2023-01-26T07:05:53;99843.53;;;0.09;58.02
55990;BME280;41875;55.806;38.082;2023-01-26T07:08:22;99841.88;;;-0.08;58.44
55990;BME280;41875;55.806;38.082;2023-01-26T07:10:51;99839.66;;;-0.16;58.96
55990;BME280;41875;55.806;38.082;2023-01-26T07:13:20;99836.56;;;0.10;58.69
55990;BME280;41875;55.806;38.082;2023-01-26T07:15:48;99844.88;;;-0.16;58.79
55990;BME280;41875;55.806;38.082;2023-01-26T07:18:17;99842.78;;;0.07;58.24
55990;BME280;41875;55.806;38.082;2023-01-26T07:20:45;99847.81;;;0.10;58.20
55990;BME280;41875;55.806;38.082;2023-01-26T07:23:14;99848.41;;;0.32;57.75
55990;BME280;41875;55.806;38.082;2023-01-26T07:25:42;99846.06;;;0.27;57.93
55990;BME280;41875;55.806;38.082;2023-01-26T07:28:12;99844.63;;;0.37;57.99
55990;BME280;41875;55.806;38.082;2023-01-26T07:30:40;99845.97;;;0.44;57.41
55990;BME280;41875;55.806;38.082;2023-01-26T07:33:09;99847.31;;;0.04;58.71
55990;BME280;41875;55.806;38.082;2023-01-26T07:35:37;99842.19;;;0.02;58.98
55990;BME280;41875;55.806;38.082;2023-01-26T07:38:05;99834.78;;;0.26;58.83
55990;BME280;41875;55.806;38.082;2023-01-26T07:40:34;99829.00;;;0.98;56.07
55990;BME280;41875;55.806;38.082;2023-01-26T07:43:02;99837.53;;;0.55;56.91
55990;BME280;41875;55.806;38.082;2023-01-26T07:45:50;99838.66;;;0.03;58.68
55990;BME280;41875;55.806;38.082;2023-01-26T07:48:19;99835.78;;;0.08;58.34
55990;BME280;41875;55.806;38.082;2023-01-26T07:50:49;99838.69;;;0.66;57.42
55990;BME280;41875;55.806;38.082;2023-01-26T07:53:18;99834.41;;;1.10;55.71
55990;BME280;41875;55.806;38.082;2023-01-26T07:55:49;99831.00;;;0.32;57.80
55990;BME280;41875;55.806;38.082;2023-01-26T07:58:17;99831.84;;;0.33;57.39
55990;BME280;41875;55.806;38.082;2023-01-26T08:00:45;99826.44;;;0.52;57.65
55990;BME280;41875;55.806;38.082;2023-01-26T08:03:15;99829.06;;;0.82;57.02
55990;BME280;41875;55.806;38.082;2023-01-26T08:05:44;99830.34;;;0.75;56.47
55990;BME280;41875;55.806;38.082;2023-01-26T08:08:17;99817.19;;;0.76;56.47
55990;BME280;41875;55.806;38.082;2023-01-26T08:10:48;99833.91;;;0.58;56.95
55990;BME280;41875;55.806;38.082;2023-01-26T08:13:20;99823.03;;;0.96;56.22
55990;BME280;41875;55.806;38.082;2023-01-26T08:16:02;99828.97;;;0.84;56.29
55990;BME280;41875;55.806;38.082;2023-01-26T08:18:32;99824.38;;;1.03;55.78
55990;BME280;41875;55.806;38.082;2023-01-26T08:21:01;99814.91;;;0.86;55.91
55990;BME280;41875;55.806;38.082;2023-01-26T08:23:29;99819.66;;;0.94;56.16
55990;BME280;41875;55.806;38.082;2023-01-26T08:26:00;99817.22;;;0.91;56.94
55990;BME280;41875;55.806;38.082;2023-01-26T08:28:29;99813.94;;;1.18;55.33
55990;BME280;41875;55.806;38.082;2023-01-26T08:31:01;99814.13;;;1.15;55.95
55990;BME280;41875;55.806;38.082;2023-01-26T08:33:32;99809.06;;;0.97;55.65
55990;BME280;41875;55.806;38.082;2023-01-26T08:36:01;99818.00;;;1.08;55.54
55990;BME280;41875;55.806;38.082;2023-01-26T08:38:31;99808.63;;;1.05;56.31
55990;BME280;41875;55.806;38.082;2023-01-26T08:41:00;99813.94;;;1.03;55.68
55990;BME280;41875;55.806;38.082;2023-01-26T08:43:29;99812.84;;;0.77;56.65
55990;BME280;41875;55.806;38.082;2023-01-26T08:45:58;99813.84;;;1.19;55.30
55990;BME280;41875;55.806;38.082;2023-01-26T08:48:27;99821.81;;;1.02;55.91
55990;BME280;41875;55.806;38.082;2023-01-26T08:50:59;99823.31;;;0.91;56.19
55990;BME280;41875;55.806;38.082;2023-01-26T08:53:29;99827.19;;;1.29;55.54
55990;BME280;41875;55.806;38.082;2023-01-26T08:56:00;99814.41;;;1.10;55.98
55990;BME280;41875;55.806;38.082;2023-01-26T08:58:28;99813.25;;;1.00;55.81
55990;BME280;41875;55.806;38.082;2023-01-26T09:00:57;99817.00;;;0.96;56.41
55990;BME280;41875;55.806;38.082;2023-01-26T09:03:25;99815.06;;;0.83;56.87
55990;BME280;41875;55.806;38.082;2023-01-26T09:05:59;99808.72;;;1.03;56.39
55990;BME280;41875;55.806;38.082;2023-01-26T09:08:28;99806.06;;;0.89;56.52
55990;BME280;41875;55.806;38.082;2023-01-26T09:10:57;99814.63;;;0.91;57.21
55990;BME280;41875;55.806;38.082;2023-01-26T09:13:25;99807.34;;;1.12;56.76
55990;BME280;41875;55.806;38.082;2023-01-26T09:15:54;99808.13;;;0.98;56.23
55990;BME280;41875;55.806;38.082;2023-01-26T09:18:22;99792.97;;;1.19;55.73
55990;BME280;41875;55.806;38.082;2023-01-26T09:20:50;99782.72;;;1.16;56.10
55990;BME280;41875;55.806;38.082;2023-01-26T09:23:23;99790.94;;;1.10;56.32
55990;BME280;41875;55.806;38.082;2023-01-26T09:25:52;99790.44;;;0.89;56.14
55990;BME280;41875;55.806;38.082;2023-01-26T09:28:20;99788.81;;;0.86;56.83
55990;BME280;41875;55.806;38.082;2023-01-26T09:30:48;99787.88;;;0.87;57.20
55990;BME280;41875;55.806;38.082;2023-01-26T09:33:17;99785.31;;;1.16;56.05
55990;BME280;41875;55.806;38.082;2023-01-26T09:35:47;99780.22;;;1.15;56.07
55990;BME280;41875;55.806;38.082;2023-01-26T09:38:16;99787.34;;;0.82;57.01
55990;BME280;41875;55.806;38.082;2023-01-26T09:40:54;99789.91;;;0.68;58.10
55990;BME280;41875;55.806;38.082;2023-01-26T09:43:31;99784.97;;;1.23;56.76
55990;BME280;41875;55.806;38.082;2023-01-26T09:46:19;99781.31;;;1.40;55.45
55990;BME280;41875;55.806;38.082;2023-01-26T09:48:57;99786.25;;;1.15;56.58
55990;BME280;41875;55.806;38.082;2023-01-26T09:51:32;99782.47;;;1.21;55.72
55990;BME280;41875;55.806;38.082;2023-01-26T09:54:08;99775.59;;;0.89;56.64
55990;BME280;41875;55.806;38.082;2023-01-26T09:56:39;99781.44;;;0.79;57.03
55990;BME280;41875;55.806;38.082;2023-01-26T09:59:17;99775.13;;;0.83;57.20
55990;BME280;41875;55.806;38.082;2023-01-26T10:01:52;99774.53;;;1.37;55.70
55990;BME280;41875;55.806;38.082;2023-01-26T10:04:28;99777.94;;;1.09;56.31
55990;BME280;41875;55.806;38.082;2023-01-26T10:07:01;99769.94;;;1.12;56.90
55990;BME280;41875;55.806;38.082;2023-01-26T10:09:48;99771.81;;;1.39;55.86
55990;BME280;41875;55.806;38.082;2023-01-26T10:12:22;99779.63;;;1.10;57.26
55990;BME280;41875;55.806;38.082;2023-01-26T10:14:53;99769.19;;;1.39;56.07
55990;BME280;41875;55.806;38.082;2023-01-26T10:17:29;99773.31;;;1.28;56.16
55990;BME280;41875;55.806;38.082;2023-01-26T10:20:03;99759.50;;;1.12;56.53
55990;BME280;41875;55.806;38.082;2023-01-26T10:22:39;99762.09;;;0.97;57.15
55990;BME280;41875;55.806;38.082;2023-01-26T10:25:14;99763.97;;;0.95;57.45
55990;BME280;41875;55.806;38.082;2023-01-26T10:27:45;99770.50;;;1.02;56.76
55990;BME280;41875;55.806;38.082;2023-01-26T10:30:15;99767.59;;;0.93;57.08
55990;BME280;41875;55.806;38.082;2023-01-26T10:32:46;99762.09;;;0.83;57.28
55990;BME280;41875;55.806;38.082;2023-01-26T10:35:17;99750.13;;;1.24;56.57
55990;BME280;41875;55.806;38.082;2023-01-26T10:37:47;99756.88;;;0.97;56.95
55990;BME280;41875;55.806;38.082;2023-01-26T10:40:16;99750.41;;;1.19;56.54
55990;BME280;41875;55.806;38.082;2023-01-26T10:42:53;99743.31;;;1.21;57.04
55990;BME280;41875;55.806;38.082;2023-01-26T10:45:26;99740.88;;;1.03;56.74
55990;BME280;41875;55.806;38.082;2023-01-26T10:48:13;99740.03;;;1.03;57.11
55990;BME280;41875;55.806;38.082;2023-01-26T10:50:44;99731.72;;;0.96;57.29
55990;BME280;41875;55.806;38.082;2023-01-26T10:53:17;99732.84;;;0.92;57.37
55990;BME280;41875;55.806;38.082;2023-01-26T10:56:00;99727.09;;;0.56;58.88
55990;BME280;41875;55.806;38.082;2023-01-26T10:58:43;99725.22;;;1.03;57.78
55990;BME280;41875;55.806;38.082;2023-01-26T11:01:13;99722.31;;;0.79;57.74
55990;BME280;41875;55.806;38.082;2023-01-26T11:03:58;99721.97;;;1.43;56.75
55990;BME280;41875;55.806;38.082;2023-01-26T11:06:29;99717.69;;;1.28;56.63
55990;BME280;41875;55.806;38.082;2023-01-26T11:09:08;99715.03;;;0.84;58.14
55990;BME280;41875;55.806;38.082;2023-01-26T11:11:37;99710.28;;;0.76;58.49
55990;BME280;41875;55.806;38.082;2023-01-26T11:14:15;99712.88;;;0.62;59.37
55990;BME280;41875;55.806;38.082;2023-01-26T11:16:44;99702.00;;;0.84;58.94
55990;BME280;41875;55.806;38.082;2023-01-26T11:19:25;99699.41;;;0.84;58.69
55990;BME280;41875;55.806;38.082;2023-01-26T11:22:04;99701.66;;;0.45;60.24
55990;BME280;41875;55.806;38.082;2023-01-26T11:24:41;99695.31;;;0.80;59.70
55990;BME280;41875;55.806;38.082;2023-01-26T11:27:28;99707.69;;;0.76;60.75
55990;BME280;41875;55.806;38.082;2023-01-26T11:33:21;99692.88;;;0.91;60.59
55990;BME280;41875;55.806;38.082;2023-01-26T11:35:58;99703.38;;;0.61;61.26
55990;BME280;41875;55.806;38.082;2023-01-26T11:38:35;99685.50;;;0.55;61.76
55990;BME280;41875;55.806;38.082;2023-01-26T11:41:19;99701.13;;;0.55;62.38
55990;BME280;41875;55.806;38.082;2023-01-26T11:44:06;99695.50;;;0.32;63.38
55990;BME280;41875;55.806;38.082;2023-01-26T11:46:51;99694.91;;;0.72;62.89
55990;BME280;41875;55.806;38.082;2023-01-26T11:49:37;99697.91;;;0.80;61.95
55990;BME280;41875;55.806;38.082;2023-01-26T11:52:21;99698.66;;;1.40;60.04
55990;BME280;41875;55.806;38.082;2023-01-26T11:55:06;99692.44;;;0.40;63.18
55990;BME280;41875;55.806;38.082;2023-01-26T11:57:49;99683.16;;;0.36;63.78
55990;BME280;41875;55.806;38.082;2023-01-26T12:00:23;99687.06;;;0.57;63.04
55990;BME280;41875;55.806;38.082;2023-01-26T12:03:00;99680.41;;;0.82;62.60
55990;BME280;41875;55.806;38.082;2023-01-26T12:05:39;99684.84;;;0.21;63.85
55990;BME280;41875;55.806;38.082;2023-01-26T12:08:15;99679.63;;;0.51;63.45
55990;BME280;41875;55.806;38.082;2023-01-26T12:10:50;99686.53;;;0.52;62.73
55990;BME280;41875;55.806;38.082;2023-01-26T12:13:32;99690.34;;;0.61;62.63
55990;BME280;41875;55.806;38.082;2023-01-26T12:16:10;99691.19;;;0.62;62.89
55990;BME280;41875;55.806;38.082;2023-01-26T12:18:45;99681.13;;;0.84;62.23
55990;BME280;41875;55.806;38.082;2023-01-26T12:21:39;99682.56;;;0.90;62.14
55990;BME280;41875;55.806;38.082;2023-01-26T12:24:14;99673.41;;;0.68;62.73
55990;BME280;41875;55.806;38.082;2023-01-26T12:27:13;99683.81;;;0.54;62.60
55990;BME280;41875;55.806;38.082;2023-01-26T12:29:47;99684.88;;;0.80;61.42
55990;BME280;41875;55.806;38.082;2023-01-26T12:32:18;99684.72;;;0.98;60.72
55990;BME280;41875;55.806;38.082;2023-01-26T12:34:48;99682.34;;;0.79;61.33
55990;BME280;41875;55.806;38.082;2023-01-26T12:37:37;99682.72;;;0.72;60.90
55990;BME280;41875;55.806;38.082;2023-01-26T12:40:17;99676.78;;;0.85;61.23
55990;BME280;41875;55.806;38.082;2023-01-26T12:42:56;99682.34;;;0.64;61.36
55990;BME280;41875;55.806;38.082;2023-01-26T12:45:33;99679.38;;;0.70;60.75
55990;BME280;41875;55.806;38.082;2023-01-26T12:48:11;99687.38;;;1.25;59.47
55990;BME280;41875;55.806;38.082;2023-01-26T12:50:44;99687.38;;;1.11;59.54
55990;BME280;41875;55.806;38.082;2023-01-26T12:53:19;99685.88;;;0.78;60.28
55990;BME280;41875;55.806;38.082;2023-01-26T12:55:53;99686.56;;;0.67;60.39
55990;BME280;41875;55.806;38.082;2023-01-26T12:58:28;99692.44;;;0.99;60.22
55990;BME280;41875;55.806;38.082;2023-01-26T13:01:01;99694.75;;;0.89;60.24
55990;BME280;41875;55.806;38.082;2023-01-26T13:03:34;99679.09;;;0.89;60.16
55990;BME280;41875;55.806;38.082;2023-01-26T13:06:22;99701.66;;;1.05;60.13
55990;BME280;41875;55.806;38.082;2023-01-26T13:09:12;99699.22;;;0.87;60.41
55990;BME280;41875;55.806;38.082;2023-01-26T13:11:51;99701.16;;;1.27;58.99
55990;BME280;41875;55.806;38.082;2023-01-26T13:14:26;99700.34;;;0.98;59.75
55990;BME280;41875;55.806;38.082;2023-01-26T13:16:56;99702.75;;;1.01;59.68
55990;BME280;41875;55.806;38.082;2023-01-26T13:19:35;99690.94;;;1.10;59.57
55990;BME280;41875;55.806;38.082;2023-01-26T13:25:27;99700.41;;;1.40;58.86
55990;BME280;41875;55.806;38.082;2023-01-26T13:27:58;99706.56;;;0.81;60.45
55990;BME280;41875;55.806;38.082;2023-01-26T13:33:20;99701.75;;;1.03;59.36
55990;BME280;41875;55.806;38.082;2023-01-26T13:35:50;99708.38;;;0.95;59.56
55990;BME280;41875;55.806;38.082;2023-01-26T13:38:26;99702.94;;;0.83;60.18
55990;BME280;41875;55.806;38.082;2023-01-26T13:41:00;99706.50;;;0.97;59.73